Terminal Aerodrome Forecast
Issued by NWS Nashville, TN

Home | Current Version | Previous Version | Text Only | Print | Product List | Glossary On
Versions: 1 2 3 4 5 6 7 8 9 10 11 12 13 14 15 16 17 18 19 20 21 22 23 24 25 26
336
FTUS44 KOHX 271128
TAFBNA
TAF
KBNA 271128Z 2712/2812 18007KT P6SM BKN050 BKN120
     FM271600 20012G20KT P6SM VCSH BKN050
     FM272200 20012G18KT 5SM -SHRA VCTS BKN035CB BKN080 PROB30
      2723/2802 2SM -TSRA OVC035CB
     FM280200 19009KT 4SM -SHRA VCTS OVC035CB
     FM280500 22006KT P6SM OVC040
     FM281000 28006KT 3SM BR OVC015=

USA.gov is the U.S. government's official web portal to all federal, state and local government web resources and services.